createdAt,value
2019-03-05T00:01:59.386Z,68.88
2019-03-05T00:04:31.339Z,69.42
2019-03-05T00:07:03.182Z,69.36
2019-03-05T00:09:35.206Z,68.71
2019-03-05T00:12:07.186Z,67.85
2019-03-05T00:14:39.138Z,68.04
2019-03-05T00:17:11.055Z,68.59
2019-03-05T00:19:42.982Z,68.79
2019-03-05T00:22:16.483Z,69.15
2019-03-05T00:25:08.834Z,68.75
2019-03-05T00:28:07.271Z,68.52
2019-03-05T00:30:47.794Z,68.88
2019-03-05T00:33:55.581Z,68.17
2019-03-05T00:37:04.068Z,68.15
2019-03-05T00:40:37.443Z,69.03
2019-03-05T00:43:47.085Z,68.74
2019-03-05T00:47:01.822Z,68.77
2019-03-05T00:50:16.266Z,68.18
2019-03-05T00:53:50.276Z,68.01
2019-03-05T00:56:46.057Z,68.26
2019-03-05T00:59:52.300Z,68.10
2019-03-05T01:03:02.446Z,68.15
2019-03-05T01:06:22.288Z,67.95
2019-03-05T01:08:56.262Z,68.09
2019-03-05T01:11:28.926Z,68.20
2019-03-05T01:14:01.335Z,68.01
2019-03-05T01:16:34.476Z,68.47
2019-03-05T01:19:06.383Z,69.23
2019-03-05T01:21:38.300Z,69.16
2019-03-05T01:24:10.337Z,69.27
2019-03-05T01:26:42.210Z,69.67
2019-03-05T01:29:14.201Z,69.83
2019-03-05T01:31:58.982Z,69.96
2019-03-05T01:34:41.923Z,69.46
2019-03-05T01:37:13.891Z,69.13
2019-03-05T01:39:57.991Z,68.87
2019-03-05T01:42:29.828Z,68.85
2019-03-05T01:45:01.714Z,68.54
2019-03-05T01:47:34.764Z,69.15
2019-03-05T01:50:08.213Z,68.83
2019-03-05T01:52:40.015Z,68.15
2019-03-05T01:55:11.899Z,67.95
2019-03-05T01:57:43.774Z,67.97
2019-03-05T02:00:16.154Z,68.18
2019-03-05T02:02:49.288Z,68.19
2019-03-05T02:05:22.062Z,68.50
2019-03-05T02:07:54.561Z,68.73
2019-03-05T02:10:27.725Z,68.92
2019-03-05T02:12:59.616Z,68.76
2019-03-05T02:15:31.431Z,68.97
2019-03-05T02:18:03.413Z,69.08
2019-03-05T02:20:35.300Z,69.02
2019-03-05T02:23:32.824Z,69.18
2019-03-05T02:27:08.140Z,69.05
2019-03-05T02:30:26.871Z,69.63
2019-03-05T02:33:51.042Z,69.88
2019-03-05T02:37:07.444Z,70.28
2019-03-05T02:40:23.575Z,70.24
2019-03-05T02:43:31.465Z,70.26
2019-03-05T02:46:49.391Z,70.29
2019-03-05T02:49:36.698Z,70.27
2019-03-05T02:53:14.029Z,70.25
2019-03-05T02:56:25.114Z,70.46
2019-03-05T02:58:54.415Z,70.77
2019-03-05T03:01:50.929Z,70.47
2019-03-05T03:04:26.014Z,70.54
2019-03-05T03:06:57.914Z,70.29
2019-03-05T03:10:16.399Z,70.45
2019-03-05T03:12:50.827Z,70.59
2019-03-05T03:15:22.941Z,70.34
2019-03-05T03:17:56.039Z,70.38
2019-03-05T03:20:28.091Z,70.09
2019-03-05T03:23:03.174Z,70.35
2019-03-05T03:25:35.102Z,70.27
2019-03-05T03:28:08.012Z,70.18
2019-03-05T03:30:40.041Z,69.54
2019-03-05T03:33:16.097Z,69.72
2019-03-05T03:35:48.044Z,69.82
2019-03-05T03:38:19.965Z,69.10
2019-03-05T03:40:52.010Z,68.82
2019-03-05T03:43:23.898Z,68.66
2019-03-05T03:45:55.784Z,68.55
2019-03-05T03:48:27.802Z,68.63
2019-03-05T03:50:59.982Z,68.63
2019-03-05T03:53:32.015Z,68.28
2019-03-05T03:56:03.971Z,68.09
2019-03-05T03:58:35.783Z,68.04
2019-03-05T04:01:16.077Z,68.00
2019-03-05T04:03:48.178Z,67.97
2019-03-05T04:06:29.208Z,67.54
2019-03-05T04:09:01.516Z,67.99
2019-03-05T04:11:37.761Z,68.06
2019-03-05T04:14:08.950Z,67.81
2019-03-05T04:16:41.222Z,67.89
2019-03-05T04:19:15.441Z,68.34
2019-03-05T04:21:50.638Z,68.13
2019-03-05T04:24:26.606Z,68.43
2019-03-05T04:26:58.411Z,68.47
2019-03-05T04:29:36.776Z,68.51
2019-03-05T04:32:11.220Z,68.65
2019-03-05T04:34:43.481Z,68.34
2019-03-05T04:37:15.904Z,68.78
2019-03-05T04:39:51.226Z,68.61
2019-03-05T04:42:23.150Z,67.97
2019-03-05T04:45:01.156Z,68.15
2019-03-05T04:47:39.232Z,68.70
2019-03-05T04:50:20.961Z,68.90
2019-03-05T04:52:58.242Z,68.77
2019-03-05T04:55:30.104Z,67.98
2019-03-05T04:58:04.112Z,68.11
2019-03-05T05:00:36.148Z,68.54
2019-03-05T05:03:09.370Z,68.04
2019-03-05T05:05:41.184Z,67.88
2019-03-05T05:08:13.188Z,68.42
2019-03-05T05:10:45.073Z,68.49
2019-03-05T05:13:17.102Z,68.62
2019-03-05T05:15:48.980Z,68.14
2019-03-05T05:18:20.974Z,68.83
2019-03-05T05:20:53.069Z,68.64
2019-03-05T05:23:24.999Z,68.70
2019-03-05T05:25:56.956Z,69.71
2019-03-05T05:28:28.820Z,70.87
2019-03-05T05:31:00.721Z,71.36
2019-03-05T05:33:33.119Z,71.24
2019-03-05T05:36:05.357Z,70.79
2019-03-05T05:38:40.435Z,71.27
2019-03-05T05:41:12.516Z,70.79
2019-03-05T05:47:23.392Z,71.25
2019-03-05T05:49:55.269Z,70.51
2019-03-05T05:52:27.740Z,70.12
2019-03-05T05:54:59.632Z,69.78
2019-03-05T05:57:32.355Z,68.25
2019-03-05T06:00:04.494Z,68.95
2019-03-05T06:02:36.584Z,67.81
2019-03-05T06:05:08.795Z,67.56
2019-03-05T06:07:41.896Z,67.52
2019-03-05T06:10:14.127Z,66.96
2019-03-05T06:12:46.212Z,66.80
2019-03-05T06:15:18.484Z,66.71
2019-03-05T06:17:58.851Z,64.99
2019-03-05T06:20:30.920Z,64.77
2019-03-05T06:23:02.924Z,65.50
2019-03-05T06:25:34.989Z,63.86
2019-03-05T06:28:07.268Z,63.79
2019-03-05T06:30:39.484Z,63.87
2019-03-05T06:33:11.438Z,63.84
2019-03-05T06:35:43.975Z,62.79
2019-03-05T06:38:16.087Z,62.26
2019-03-05T06:40:48.288Z,61.61
2019-03-05T06:43:20.525Z,61.25
2019-03-05T06:45:52.631Z,61.15
2019-03-05T06:48:24.693Z,61.35
2019-03-05T06:50:56.687Z,61.08
2019-03-05T06:53:28.713Z,61.23
2019-03-05T06:56:00.605Z,61.60
2019-03-05T06:58:32.498Z,61.03
2019-03-05T07:01:04.752Z,60.88
2019-03-05T07:03:36.733Z,60.92
2019-03-05T07:06:48.843Z,61.03
2019-03-05T07:10:24.503Z,60.93
2019-03-05T07:13:21.470Z,60.73
2019-03-05T07:16:29.055Z,60.88
2019-03-05T07:19:57.598Z,61.08
2019-03-05T07:22:45.861Z,61.76
2019-03-05T07:25:17.761Z,61.46
2019-03-05T07:27:59.626Z,62.30
2019-03-05T07:30:31.511Z,62.75
2019-03-05T07:33:03.481Z,62.82
2019-03-05T07:35:36.050Z,62.86
2019-03-05T07:38:08.176Z,62.58
2019-03-05T07:40:40.098Z,61.46
2019-03-05T07:43:12.061Z,61.48
2019-03-05T07:45:44.074Z,60.65
2019-03-05T07:48:16.110Z,61.34
2019-03-05T07:50:48.017Z,61.56
2019-03-05T07:53:19.999Z,62.15
2019-03-05T07:55:51.864Z,62.47
2019-03-05T07:58:23.799Z,62.52
2019-03-05T08:00:55.784Z,62.82
2019-03-05T08:03:27.688Z,62.19
2019-03-05T08:05:59.525Z,61.56
2019-03-05T08:09:44.459Z,61.25
2019-03-05T08:13:06.942Z,60.49
2019-03-05T08:16:10.380Z,58.97
2019-03-05T08:18:42.199Z,58.30
2019-03-05T08:21:14.224Z,56.35
2019-03-05T08:23:48.379Z,56.35
2019-03-05T08:26:19.791Z,56.31
2019-03-05T08:28:51.714Z,55.14
2019-03-05T08:31:23.567Z,55.77
2019-03-05T08:33:55.518Z,55.94
2019-03-05T08:36:27.439Z,55.07
2019-03-05T08:38:59.430Z,54.47
2019-03-05T08:41:31.360Z,53.02
2019-03-05T08:44:03.320Z,53.97
2019-03-05T08:46:35.348Z,53.39
2019-03-05T08:49:07.286Z,53.08
2019-03-05T08:51:39.217Z,52.48
2019-03-05T08:54:11.078Z,53.07
2019-03-05T08:56:42.955Z,50.71
2019-03-05T08:59:14.815Z,51.64
2019-03-05T09:01:46.735Z,51.73
2019-03-05T09:04:18.623Z,51.57
2019-03-05T09:06:51.937Z,52.10
2019-03-05T09:09:23.782Z,52.31
2019-03-05T09:11:56.055Z,51.94
2019-03-05T09:14:27.946Z,52.10
2019-03-05T09:16:59.890Z,53.39
2019-03-05T09:19:31.818Z,53.92
2019-03-05T09:22:04.892Z,53.71
2019-03-05T09:24:36.858Z,53.83
2019-03-05T09:27:08.747Z,53.39
2019-03-05T09:29:40.640Z,52.54
2019-03-05T09:32:12.576Z,52.23
2019-03-05T09:34:45.628Z,52.43
2019-03-05T09:37:17.551Z,52.77
2019-03-05T09:39:49.551Z,51.32
2019-03-05T09:42:21.406Z,51.98
2019-03-05T09:44:54.439Z,52.07
2019-03-05T09:47:26.346Z,52.37
2019-03-05T09:49:59.355Z,53.00
2019-03-05T09:52:31.301Z,52.80
2019-03-05T09:55:03.381Z,53.42
2019-03-05T09:57:37.966Z,52.17
2019-03-05T10:00:14.830Z,52.15
2019-03-05T10:02:46.791Z,51.83
2019-03-05T10:05:18.754Z,50.86
2019-03-05T10:07:50.882Z,51.80
2019-03-05T10:10:25.177Z,51.06
2019-03-05T10:12:59.124Z,48.63
2019-03-05T10:15:31.718Z,48.22
2019-03-05T10:18:12.162Z,48.66
2019-03-05T10:20:37.461Z,47.25
2019-03-05T10:23:09.356Z,46.70
2019-03-05T10:25:41.364Z,46.74
2019-03-05T10:28:13.424Z,47.04
2019-03-05T10:30:45.467Z,46.38
2019-03-05T10:33:18.428Z,47.04
2019-03-05T10:35:50.467Z,46.42
2019-03-05T10:38:22.455Z,45.32
2019-03-05T10:40:54.770Z,46.18
2019-03-05T10:43:26.693Z,46.70
2019-03-05T10:45:58.609Z,46.14
2019-03-05T10:48:30.766Z,47.09
2019-03-05T10:51:02.648Z,47.08
2019-03-05T10:53:34.813Z,46.36
2019-03-05T10:56:07.626Z,45.14
2019-03-05T10:58:39.960Z,44.57
2019-03-05T11:01:12.569Z,43.71
2019-03-05T11:03:44.685Z,45.01
2019-03-05T11:06:16.659Z,45.34
2019-03-05T11:08:50.432Z,44.36
2019-03-05T11:11:22.447Z,43.70
2019-03-05T11:13:54.430Z,43.33
2019-03-05T11:16:30.791Z,44.83
2019-03-05T11:19:00.539Z,45.10
2019-03-05T11:21:32.523Z,44.49
2019-03-05T11:24:04.677Z,45.40
2019-03-05T11:26:36.639Z,45.90
2019-03-05T11:29:08.577Z,47.17
2019-03-05T11:31:40.845Z,47.57
2019-03-05T11:34:13.313Z,47.02
2019-03-05T11:36:45.486Z,46.82
2019-03-05T11:39:17.842Z,45.72
2019-03-05T11:41:49.760Z,45.31
2019-03-05T11:50:05.759Z,44.57
2019-03-05T11:52:37.940Z,43.83
2019-03-05T11:55:12.563Z,45.71
2019-03-05T11:57:44.651Z,46.84
2019-03-05T12:00:29.338Z,48.47
2019-03-05T12:03:01.318Z,49.58
2019-03-05T12:05:33.391Z,48.71
2019-03-05T12:08:05.478Z,48.42
2019-03-05T12:10:37.491Z,47.51
2019-03-05T12:13:09.847Z,48.33
2019-03-05T12:15:41.945Z,48.77
2019-03-05T12:18:13.919Z,51.87
2019-03-05T12:20:45.835Z,52.81
2019-03-05T12:23:17.854Z,54.57
2019-03-05T12:25:49.848Z,56.76
2019-03-05T12:28:21.811Z,59.45
2019-03-05T12:30:53.943Z,60.94
2019-03-05T12:33:25.821Z,60.47
2019-03-05T12:35:57.650Z,58.35
2019-03-05T12:38:29.525Z,58.22
2019-03-05T12:41:01.369Z,56.72
2019-03-05T12:43:33.336Z,56.71
2019-03-05T12:46:05.331Z,56.75
2019-03-05T12:48:40.290Z,57.44
2019-03-05T12:51:11.982Z,58.65
2019-03-05T12:53:43.949Z,56.69
2019-03-05T12:56:23.441Z,56.91
2019-03-05T12:58:49.412Z,56.79
2019-03-05T13:01:21.340Z,55.59
2019-03-05T13:03:53.252Z,57.08
2019-03-05T13:06:25.073Z,56.29
2019-03-05T13:08:57.044Z,55.00
2019-03-05T13:11:29.218Z,54.49
2019-03-05T13:14:06.096Z,52.15
2019-03-05T13:16:35.250Z,50.65
2019-03-05T13:19:09.559Z,50.61
2019-03-05T13:21:44.260Z,51.02
2019-03-05T13:24:15.443Z,51.95
2019-03-05T13:26:47.300Z,51.81
2019-03-05T13:29:20.582Z,51.45
2019-03-05T13:31:53.703Z,49.78
2019-03-05T13:34:25.622Z,50.36
2019-03-05T13:36:57.545Z,48.67
2019-03-05T13:39:29.412Z,49.66
2019-03-05T13:42:01.226Z,51.64
2019-03-05T13:44:35.565Z,52.07
2019-03-05T13:47:13.345Z,52.96
2019-03-05T13:50:24.190Z,57.61
2019-03-05T13:53:26.609Z,59.44
2019-03-05T13:57:00.613Z,62.61
2019-03-05T13:59:50.588Z,64.50
2019-03-05T14:02:29.954Z,67.06
2019-03-05T14:05:38.761Z,69.10
2019-03-05T14:09:23.909Z,71.92
2019-03-05T14:11:55.928Z,78.07
2019-03-05T14:14:32.128Z,82.87
2019-03-05T14:17:37.130Z,85.17
2019-03-05T14:20:13.563Z,87.53
2019-03-05T14:22:45.495Z,89.80
2019-03-05T14:25:20.561Z,91.34
2019-03-05T14:27:52.551Z,92.42
2019-03-05T14:30:24.612Z,93.03
2019-03-05T14:32:56.523Z,94.12
2019-03-05T14:35:32.200Z,93.79
2019-03-05T14:38:04.255Z,90.43
2019-03-05T14:40:37.917Z,89.93
2019-03-05T14:43:10.268Z,88.59
2019-03-05T14:45:42.200Z,87.59
2019-03-05T14:48:19.829Z,87.01
2019-03-05T14:50:51.919Z,87.70
2019-03-05T14:53:23.787Z,87.32
2019-03-05T14:55:55.741Z,87.90
2019-03-05T14:58:28.037Z,87.09
2019-03-05T15:00:59.979Z,87.12
2019-03-05T15:03:31.851Z,87.25
2019-03-05T15:06:04.261Z,85.93
2019-03-05T15:08:36.304Z,84.59
2019-03-05T15:11:09.694Z,84.01
2019-03-05T15:13:41.815Z,83.66
2019-03-05T15:16:14.079Z,83.52
2019-03-05T15:18:48.982Z,83.80
2019-03-05T15:21:21.367Z,83.99
2019-03-05T15:23:53.435Z,84.30
2019-03-05T15:26:28.737Z,84.61
2019-03-05T15:29:00.689Z,85.03
2019-03-05T15:31:34.306Z,84.27
2019-03-05T15:34:07.278Z,84.08
2019-03-05T15:36:41.385Z,83.19
2019-03-05T15:39:15.622Z,81.40
2019-03-05T15:41:48.201Z,80.98
2019-03-05T15:44:20.926Z,81.03
2019-03-05T15:46:56.280Z,81.51
2019-03-05T15:49:28.792Z,81.77
2019-03-05T15:52:01.208Z,81.19
2019-03-05T15:54:33.323Z,81.03
2019-03-05T15:57:05.556Z,81.14
2019-03-05T15:59:38.052Z,80.72
2019-03-05T16:02:10.827Z,80.04
2019-03-05T16:04:46.177Z,79.21
2019-03-05T16:07:22.999Z,79.59
2019-03-05T16:09:55.419Z,79.95
2019-03-05T16:12:27.497Z,80.61
2019-03-05T16:15:05.196Z,81.49
2019-03-05T16:17:37.788Z,83.42
2019-03-05T16:20:11.832Z,84.57
2019-03-05T16:22:43.972Z,86.26
2019-03-05T16:25:16.998Z,86.06
2019-03-05T16:27:50.927Z,88.03
2019-03-05T16:30:42.504Z,88.63
2019-03-05T16:33:32.387Z,89.01
2019-03-05T16:36:29.198Z,89.56
2019-03-05T16:39:10.998Z,90.79
2019-03-05T16:42:05.217Z,90.52
2019-03-05T16:44:47.603Z,91.33
2019-03-05T16:47:31.215Z,91.51
2019-03-05T16:50:21.014Z,92.30
2019-03-05T16:53:26.126Z,92.70
2019-03-05T16:56:16.174Z,93.18
2019-03-05T16:59:05.894Z,93.65
2019-03-05T17:01:44.998Z,93.77
2019-03-05T17:04:39.190Z,93.58
2019-03-05T17:07:35.910Z,93.14
2019-03-05T17:10:37.778Z,93.00
2019-03-05T17:13:10.622Z,92.67
2019-03-05T17:15:43.161Z,92.37
2019-03-05T17:18:15.270Z,91.72
2019-03-05T17:20:47.412Z,91.97
2019-03-05T17:23:19.524Z,91.51
2019-03-05T17:25:51.608Z,89.83
2019-03-05T17:28:23.522Z,88.92
2019-03-05T17:30:55.590Z,87.97
2019-03-05T17:33:27.636Z,87.26
2019-03-05T17:35:59.766Z,87.00
2019-03-05T17:38:32.120Z,87.89
2019-03-05T17:41:04.157Z,89.16
2019-03-05T17:43:36.675Z,89.89
2019-03-05T17:46:08.797Z,90.93
2019-03-05T17:48:42.538Z,92.49
2019-03-05T17:51:14.622Z,92.79
2019-03-05T17:53:48.232Z,93.75
2019-03-05T17:56:20.354Z,94.17
2019-03-05T17:58:52.306Z,94.67
2019-03-05T18:01:24.640Z,95.88
2019-03-05T18:03:56.651Z,94.36
2019-03-05T18:06:28.687Z,94.53
2019-03-05T18:09:01.644Z,94.62
2019-03-05T18:11:35.470Z,94.52
2019-03-05T18:14:08.076Z,94.51
2019-03-05T18:16:40.291Z,94.70
2019-03-05T18:19:12.398Z,94.91
2019-03-05T18:21:44.546Z,94.53
2019-03-05T18:24:16.487Z,94.75
2019-03-05T18:26:48.807Z,94.93
2019-03-05T18:29:20.799Z,94.77
2019-03-05T18:31:53.112Z,94.03
2019-03-05T18:34:27.512Z,93.58
2019-03-05T18:36:59.518Z,93.73
2019-03-05T18:39:32.916Z,93.32
2019-03-05T18:42:05.082Z,93.03
2019-03-05T18:44:39.542Z,93.07
2019-03-05T18:47:11.349Z,92.34
2019-03-05T18:49:43.506Z,90.24
2019-03-05T18:52:15.656Z,90.06
2019-03-05T18:54:47.895Z,89.94
2019-03-05T18:57:20.099Z,89.56
2019-03-05T18:59:52.515Z,89.14
2019-03-05T19:02:24.994Z,88.62
2019-03-05T19:04:57.967Z,88.30
2019-03-05T19:07:30.725Z,88.23
2019-03-05T19:10:02.962Z,88.42
2019-03-05T19:12:36.808Z,87.85
2019-03-05T19:15:10.701Z,87.53
2019-03-05T19:17:45.106Z,88.96
2019-03-05T19:20:22.219Z,90.42
2019-03-05T19:22:54.607Z,92.51
2019-03-05T19:25:29.129Z,93.58
2019-03-05T19:28:01.506Z,94.21
2019-03-05T19:30:35.629Z,95.32
2019-03-05T19:33:07.859Z,95.89
2019-03-05T19:35:39.898Z,96.65
2019-03-05T19:38:12.118Z,97.18
2019-03-05T19:40:44.365Z,97.66
2019-03-05T19:43:16.530Z,97.94
2019-03-05T19:45:48.583Z,98.38
2019-03-05T19:48:27.458Z,99.00
2019-03-05T19:50:55.385Z,100.00
2019-03-05T19:53:29.815Z,100.00
2019-03-05T19:56:02.343Z,100.00
2019-03-05T19:58:35.959Z,100.00
2019-03-05T20:01:17.180Z,100.00
2019-03-05T20:03:49.503Z,100.00
2019-03-05T20:06:22.441Z,100.00
2019-03-05T20:08:55.987Z,100.00
2019-03-05T20:11:28.641Z,100.00
2019-03-05T20:14:00.992Z,100.00
2019-03-05T20:16:33.286Z,100.00
2019-03-05T20:19:05.750Z,100.00
2019-03-05T20:21:43.717Z,100.00
2019-03-05T20:24:16.586Z,100.00
2019-03-05T20:26:54.749Z,100.00
2019-03-05T20:29:27.405Z,100.00
2019-03-05T20:32:00.539Z,100.00
2019-03-05T20:34:36.942Z,100.00
2019-03-05T20:37:10.190Z,100.00
2019-03-05T20:39:46.644Z,100.00
2019-03-05T20:42:19.314Z,100.00
2019-03-05T20:44:52.632Z,100.00
2019-03-05T20:47:28.504Z,100.00
2019-03-05T20:50:01.242Z,100.00
2019-03-05T20:52:37.593Z,100.00
2019-03-05T20:55:15.091Z,100.00
2019-03-05T20:57:48.642Z,100.00
2019-03-05T21:00:32.113Z,100.00
2019-03-05T21:03:06.269Z,99.33
2019-03-05T21:05:43.537Z,98.92
2019-03-05T21:08:29.101Z,98.53
2019-03-05T21:12:56.504Z,98.86
2019-03-05T21:14:49.220Z,99.20
2019-03-05T21:17:21.057Z,98.17
2019-03-05T21:19:53.262Z,97.28
2019-03-05T21:22:25.469Z,96.88
2019-03-05T21:24:57.788Z,96.58
2019-03-05T21:27:34.814Z,96.47
2019-03-05T21:30:03.602Z,96.63
2019-03-05T21:32:35.955Z,96.41
2019-03-05T21:35:09.581Z,96.45
2019-03-05T21:37:41.681Z,96.54
2019-03-05T21:40:23.181Z,96.33
2019-03-05T21:42:55.455Z,96.03
2019-03-05T21:45:34.454Z,96.04
2019-03-05T21:48:07.484Z,95.83
2019-03-05T21:50:39.557Z,95.58
2019-03-05T21:53:11.656Z,95.33
2019-03-05T21:55:43.708Z,95.02
2019-03-05T21:58:17.020Z,94.62
2019-03-05T22:00:48.980Z,94.11
2019-03-05T22:03:21.029Z,93.66
2019-03-05T22:05:53.044Z,93.28
2019-03-05T22:08:25.247Z,93.15
2019-03-05T22:10:57.328Z,93.06
2019-03-05T22:13:29.820Z,92.79
2019-03-05T22:16:02.176Z,92.96
2019-03-05T22:18:34.662Z,93.07
2019-03-05T22:21:07.254Z,92.85
2019-03-05T22:23:39.451Z,92.84
2019-03-05T22:26:11.328Z,93.10
2019-03-05T22:28:43.371Z,93.66
2019-03-05T22:31:15.293Z,93.97
2019-03-05T22:33:47.256Z,94.15
2019-03-05T22:36:19.191Z,94.28
2019-03-05T22:38:51.328Z,94.64
2019-03-05T22:41:23.206Z,94.67
2019-03-05T22:43:55.283Z,95.27
2019-03-05T22:46:27.262Z,95.29
2019-03-05T22:48:59.444Z,95.37
2019-03-05T22:51:31.412Z,95.41
2019-03-05T22:54:03.462Z,95.32
2019-03-05T22:56:35.287Z,95.21
2019-03-05T22:59:08.435Z,95.02
2019-03-05T23:01:43.338Z,94.95
2019-03-05T23:04:21.091Z,95.04
2019-03-05T23:06:53.170Z,94.35
2019-03-05T23:09:26.949Z,94.06
2019-03-05T23:11:58.992Z,94.13
2019-03-05T23:14:31.063Z,93.85
2019-03-05T23:17:03.703Z,93.88
2019-03-05T23:19:36.022Z,94.03
2019-03-05T23:22:08.259Z,94.05
2019-03-05T23:24:40.414Z,94.47
2019-03-05T23:27:12.546Z,94.52
2019-03-05T23:29:46.007Z,94.40
2019-03-05T23:32:20.061Z,94.15
2019-03-05T23:34:53.047Z,93.95
2019-03-05T23:37:25.028Z,94.03
2019-03-05T23:39:56.898Z,94.19
2019-03-05T23:42:28.901Z,94.37
2019-03-05T23:45:00.771Z,94.58
2019-03-05T23:47:35.543Z,94.83
2019-03-05T23:50:07.753Z,95.05
2019-03-05T23:52:42.264Z,95.73
2019-03-05T23:55:14.751Z,96.21
2019-03-05T23:57:47.048Z,96.46
